createdAt,value
2023-04-20T00:00:52.344Z,4.00
2023-04-20T00:03:20.841Z,3.90
2023-04-20T00:05:50.267Z,3.90
2023-04-20T00:08:17.074Z,3.90
2023-04-20T00:10:47.461Z,3.90
2023-04-20T00:13:14.443Z,3.80
2023-04-20T00:15:42.315Z,3.70
2023-04-20T00:18:11.400Z,3.70
2023-04-20T00:20:40.505Z,3.70
2023-04-20T00:23:12.201Z,3.70
2023-04-20T00:25:41.145Z,3.70
2023-04-20T00:28:07.801Z,3.70
2023-04-20T00:30:34.540Z,3.60
2023-04-20T00:33:03.300Z,3.50
2023-04-20T00:35:30.352Z,3.50
2023-04-20T00:38:03.414Z,3.50
2023-04-20T00:41:02.428Z,3.40
2023-04-20T00:49:31.562Z,3.40
2023-04-20T00:52:00.310Z,3.40
2023-04-20T00:54:31.659Z,3.30
2023-04-20T00:57:04.581Z,3.20
2023-04-20T00:59:32.476Z,3.20
2023-04-20T01:01:59.661Z,3.00
2023-04-20T01:04:27.018Z,3.00
2023-04-20T01:06:57.483Z,3.00
2023-04-20T01:09:24.166Z,2.90
2023-04-20T01:11:50.857Z,3.00
2023-04-20T01:14:17.543Z,3.00
2023-04-20T01:16:44.211Z,3.00
2023-04-20T01:19:16.771Z,2.90
2023-04-20T01:21:43.715Z,2.90
2023-04-20T01:24:12.938Z,2.80
2023-04-20T01:26:40.645Z,2.90
2023-04-20T01:29:07.465Z,2.90
2023-04-20T01:31:37.518Z,2.90
2023-04-20T01:34:10.369Z,2.90
2023-04-20T01:36:38.667Z,2.90
2023-04-20T01:39:07.032Z,2.90
2023-04-20T01:41:33.784Z,2.90
2023-04-20T01:44:01.751Z,2.80
2023-04-20T01:46:28.503Z,2.80
2023-04-20T01:48:58.492Z,2.70
2023-04-20T01:51:25.601Z,2.70
2023-04-20T01:53:52.205Z,2.60
2023-04-20T01:56:22.219Z,2.50
2023-04-20T01:58:50.696Z,2.50
2023-04-20T02:01:19.527Z,2.40
2023-04-20T02:03:46.421Z,2.40
2023-04-20T02:06:13.121Z,2.40
2023-04-20T02:08:41.658Z,2.40
2023-04-20T02:11:08.376Z,2.40
2023-04-20T02:13:39.655Z,2.40
2023-04-20T02:16:06.681Z,2.40
2023-04-20T02:18:36.693Z,2.30
2023-04-20T02:21:03.613Z,2.30
2023-04-20T02:23:37.121Z,2.20
2023-04-20T02:26:06.528Z,2.10
2023-04-20T02:28:39.800Z,2.10
2023-04-20T02:31:06.466Z,2.10
2023-04-20T02:33:36.362Z,2.00
2023-04-20T02:36:05.799Z,2.00
2023-04-20T02:38:37.184Z,2.00
2023-04-20T02:41:03.944Z,2.00
2023-04-20T02:43:35.350Z,2.00
2023-04-20T02:46:08.570Z,2.00
2023-04-20T02:48:38.640Z,2.00
2023-04-20T02:51:06.553Z,2.00
2023-04-20T02:53:42.646Z,1.90
2023-04-20T02:56:21.079Z,1.90
2023-04-20T02:59:00.749Z,1.80
2023-04-20T03:01:55.681Z,1.80
2023-04-20T03:04:26.788Z,1.80
2023-04-20T03:07:00.596Z,1.80
2023-04-20T03:09:30.375Z,1.70
2023-04-20T03:15:22.665Z,1.70
2023-04-20T03:18:05.843Z,1.60
2023-04-20T03:20:32.619Z,1.60
2023-04-20T03:22:59.685Z,1.60
2023-04-20T03:28:19.568Z,1.60
2023-04-20T03:30:46.864Z,1.60
2023-04-20T03:33:20.544Z,1.60
2023-04-20T03:35:47.534Z,1.60
2023-04-20T03:38:21.819Z,1.60
2023-04-20T03:40:50.774Z,1.60
2023-04-20T03:43:17.765Z,1.60
2023-04-20T03:45:44.851Z,1.60
2023-04-20T03:48:11.657Z,1.50
2023-04-20T03:50:38.338Z,1.40
2023-04-20T03:53:08.736Z,1.40
2023-04-20T03:55:36.942Z,1.40
2023-04-20T03:58:12.701Z,1.40
2023-04-20T04:01:11.692Z,1.30
2023-04-20T04:03:42.871Z,1.30
2023-04-20T04:06:11.457Z,1.30
2023-04-20T04:08:38.081Z,1.30
2023-04-20T04:11:05.147Z,1.30
2023-04-20T04:13:34.648Z,1.30
2023-04-20T04:16:06.922Z,1.30
2023-04-20T04:18:36.204Z,1.30
2023-04-20T04:21:09.676Z,1.30
2023-04-20T04:23:41.794Z,1.40
2023-04-20T04:26:26.059Z,1.40
2023-04-20T04:28:57.549Z,1.40
2023-04-20T04:31:24.765Z,1.30
2023-04-20T04:33:51.705Z,1.30
2023-04-20T04:36:36.813Z,1.20
2023-04-20T04:42:11.630Z,1.10
2023-04-20T04:44:42.879Z,1.10
2023-04-20T04:47:17.176Z,1.10
2023-04-20T04:49:50.897Z,1.20
2023-04-20T04:52:20.217Z,1.20
2023-04-20T04:54:50.078Z,1.20
2023-04-20T04:57:21.217Z,1.20
2023-04-20T04:59:47.996Z,1.20
2023-04-20T05:02:16.116Z,1.20
2023-04-20T05:04:43.043Z,1.20
2023-04-20T05:07:09.874Z,1.30
2023-04-20T05:09:36.979Z,1.40
2023-04-20T05:12:08.488Z,1.40
2023-04-20T05:14:36.884Z,1.40
2023-04-20T05:17:08.804Z,1.40
2023-04-20T05:19:38.890Z,1.40
2023-04-20T05:22:08.194Z,1.50
2023-04-20T05:24:35.928Z,1.50
2023-04-20T05:27:06.476Z,1.50
2023-04-20T05:29:35.490Z,1.50
2023-04-20T05:32:02.773Z,1.60
2023-04-20T05:34:29.595Z,1.70
2023-04-20T05:39:52.717Z,1.80
2023-04-20T05:42:21.849Z,1.80
2023-04-20T05:44:48.619Z,1.90
2023-04-20T05:47:16.549Z,1.90
2023-04-20T05:49:45.762Z,2.00
2023-04-20T05:52:15.872Z,2.10
2023-04-20T05:54:48.329Z,2.10
2023-04-20T05:57:18.821Z,2.20
2023-04-20T05:59:46.008Z,2.30
2023-04-20T06:02:12.664Z,2.40
2023-04-20T06:04:44.052Z,2.50
2023-04-20T06:07:11.008Z,2.60
2023-04-20T06:09:43.264Z,2.70
2023-04-20T06:19:47.086Z,3.10
2023-04-20T06:22:15.372Z,3.30
2023-04-20T06:24:42.649Z,3.40
2023-04-20T06:27:09.977Z,3.60
2023-04-20T06:29:37.372Z,3.70
2023-04-20T06:32:04.870Z,3.90
2023-04-20T06:34:33.069Z,4.00
2023-04-20T06:36:59.973Z,4.10
2023-04-20T06:42:34.076Z,4.40
2023-04-20T06:45:02.090Z,4.60
2023-04-20T06:47:31.516Z,4.70
2023-04-20T06:49:59.283Z,4.80
2023-04-20T06:52:31.166Z,5.00
2023-04-20T06:55:01.405Z,5.10
2023-04-20T06:57:28.643Z,5.20
2023-04-20T06:59:55.485Z,5.30
2023-04-20T07:05:20.348Z,5.50
2023-04-20T07:07:47.055Z,5.60
2023-04-20T07:10:15.445Z,5.70
2023-04-20T07:12:43.985Z,5.80
2023-04-20T07:15:14.655Z,6.00
2023-04-20T07:17:42.516Z,6.20
2023-04-20T07:20:11.651Z,6.30
2023-04-20T07:22:41.975Z,6.40
2023-04-20T07:25:11.967Z,6.50
2023-04-20T07:27:40.656Z,6.60
2023-04-20T07:30:08.229Z,6.80
2023-04-20T07:32:35.997Z,6.90
2023-04-20T07:35:03.383Z,7.10
2023-04-20T07:37:31.975Z,7.30
2023-04-20T07:48:49.316Z,7.80
2023-04-20T07:51:16.014Z,7.90
2023-04-20T07:53:45.230Z,8.00
2023-04-20T07:59:03.809Z,8.30
2023-04-20T08:01:30.668Z,8.50
2023-04-20T08:03:57.635Z,8.70
2023-04-20T08:06:24.886Z,8.80
2023-04-20T08:08:55.233Z,8.90
2023-04-20T08:11:23.736Z,9.00
2023-04-20T08:13:56.687Z,9.00
2023-04-20T08:16:28.179Z,9.10
2023-04-20T08:18:54.936Z,9.20
2023-04-20T08:21:25.536Z,9.30
2023-04-20T08:23:53.336Z,9.50
2023-04-20T08:26:24.606Z,9.70
2023-04-20T08:28:51.314Z,9.80
2023-04-20T08:31:18.345Z,10.00
2023-04-20T08:33:45.077Z,10.20
2023-04-20T08:36:12.071Z,10.30
2023-04-20T08:38:41.147Z,10.50
2023-04-20T08:41:07.917Z,10.60
2023-04-20T08:43:39.126Z,10.80
2023-04-20T08:46:06.525Z,10.90
2023-04-20T08:48:36.288Z,11.10
2023-04-20T09:03:02.539Z,11.50
2023-04-20T09:08:05.756Z,11.50
2023-04-20T09:10:46.156Z,11.30
2023-04-20T09:13:25.155Z,11.40
2023-04-20T09:15:53.069Z,11.70
2023-04-20T09:18:19.904Z,12.10
2023-04-20T09:20:46.821Z,12.30
2023-04-20T09:26:18.257Z,12.20
2023-04-20T09:28:45.480Z,12.00
2023-04-20T09:31:26.149Z,11.90
2023-04-20T09:34:02.563Z,12.00
2023-04-20T09:36:42.469Z,12.10
2023-04-20T09:39:15.689Z,12.10
2023-04-20T09:41:46.294Z,12.10
2023-04-20T09:44:17.027Z,12.20
2023-04-20T09:46:49.251Z,12.20
2023-04-20T09:49:15.874Z,12.40
2023-04-20T09:51:48.349Z,12.40
2023-04-20T09:54:15.296Z,12.40
2023-04-20T09:56:42.502Z,12.40
2023-04-20T09:59:09.164Z,12.30
2023-04-20T10:01:38.592Z,12.20
2023-04-20T10:04:13.613Z,12.20
2023-04-20T10:06:55.524Z,12.00
2023-04-20T10:12:20.054Z,11.70
2023-04-20T10:17:45.478Z,11.60
2023-04-20T10:20:27.318Z,11.60
2023-04-20T10:35:02.598Z,11.40
2023-04-20T10:40:45.613Z,11.40
2023-04-20T10:46:23.494Z,11.40
2023-04-20T10:51:55.352Z,11.50
2023-04-20T10:54:22.237Z,11.60
2023-04-20T10:56:54.332Z,11.70
2023-04-20T10:59:31.858Z,11.70
2023-04-20T11:08:02.900Z,11.70
2023-04-20T11:10:54.532Z,11.70
2023-04-20T11:13:25.062Z,11.90
2023-04-20T11:15:51.785Z,12.00
2023-04-20T11:18:21.040Z,12.10
2023-04-20T11:20:55.406Z,12.20
2023-04-20T11:23:24.607Z,12.30
2023-04-20T11:25:56.203Z,12.20
2023-04-20T11:28:23.437Z,12.20
2023-04-20T11:30:53.774Z,12.20
2023-04-20T11:33:27.631Z,12.10
2023-04-20T11:35:56.282Z,12.10
2023-04-20T11:38:35.419Z,12.00
2023-04-20T11:41:09.334Z,11.80
2023-04-20T11:43:36.560Z,11.70
2023-04-20T11:46:11.837Z,11.50
2023-04-20T11:48:41.576Z,11.40
2023-04-20T11:51:18.808Z,11.30
2023-04-20T11:53:47.756Z,11.30
2023-04-20T11:56:14.546Z,11.20
2023-04-20T11:58:41.322Z,11.20
2023-04-20T12:01:17.911Z,11.20
2023-04-20T12:03:50.751Z,11.10
2023-04-20T12:06:23.947Z,11.10
2023-04-20T12:08:55.111Z,11.10
2023-04-20T12:11:23.857Z,11.10
2023-04-20T12:17:39.487Z,11.00
2023-04-20T12:20:09.456Z,11.00
2023-04-20T12:22:36.206Z,10.90
2023-04-20T12:25:03.647Z,10.80
2023-04-20T12:27:30.737Z,10.80
2023-04-20T12:35:41.586Z,10.70
2023-04-20T12:38:20.646Z,10.50
2023-04-20T12:40:47.835Z,10.40
2023-04-20T12:43:24.835Z,10.40
2023-04-20T12:45:51.553Z,10.30
2023-04-20T12:48:25.232Z,10.30
2023-04-20T13:02:32.591Z,10.10
2023-04-20T13:05:03.396Z,10.10
2023-04-20T13:07:31.345Z,10.10
2023-04-20T13:10:01.384Z,10.00
2023-04-20T13:18:39.622Z,9.70
2023-04-20T13:21:06.396Z,9.70
2023-04-20T13:23:33.083Z,9.60
2023-04-20T13:26:00.909Z,9.40
2023-04-20T13:28:29.006Z,9.40
2023-04-20T13:30:58.578Z,9.30
2023-04-20T13:33:29.556Z,9.30
2023-04-20T13:35:59.636Z,9.30
2023-04-20T13:38:26.366Z,9.30
2023-04-20T13:40:53.718Z,9.30
2023-04-20T13:43:21.728Z,9.20
2023-04-20T13:45:50.942Z,9.30
2023-04-20T13:48:20.703Z,9.20
2023-04-20T13:56:38.677Z,9.10
2023-04-20T14:02:11.279Z,9.10
2023-04-20T14:07:42.648Z,8.90
2023-04-20T14:10:19.871Z,8.90
2023-04-20T14:12:59.756Z,8.90
2023-04-20T14:18:15.719Z,8.90
2023-04-20T14:20:42.635Z,8.90
2023-04-20T14:23:11.828Z,8.80
2023-04-20T14:25:38.523Z,8.80
2023-04-20T14:31:07.796Z,8.70
2023-04-20T14:33:34.462Z,8.80
2023-04-20T14:36:02.347Z,8.90
2023-04-20T14:41:24.779Z,9.00
2023-04-20T14:43:51.585Z,8.90
2023-04-20T14:46:19.797Z,8.90
2023-04-20T14:48:46.579Z,8.90
2023-04-20T14:51:13.784Z,9.00
2023-04-20T14:53:40.580Z,8.90
2023-04-20T14:56:13.204Z,9.00
2023-04-20T14:58:47.288Z,8.90
2023-04-20T15:01:14.177Z,8.90
2023-04-20T15:03:43.515Z,8.90
2023-04-20T15:06:16.816Z,8.90
2023-04-20T15:08:45.944Z,8.90
2023-04-20T15:11:12.681Z,8.90
2023-04-20T15:16:39.321Z,8.80
2023-04-20T15:19:10.782Z,8.90
2023-04-20T15:21:42.611Z,8.90
2023-04-20T15:24:13.785Z,8.90
2023-04-20T15:26:44.715Z,8.80
2023-04-20T15:29:14.790Z,8.80
2023-04-20T15:31:42.720Z,8.80
2023-04-20T15:34:10.554Z,8.80
2023-04-20T15:36:37.731Z,8.80
2023-04-20T15:39:05.583Z,8.80
2023-04-20T15:41:34.601Z,8.80
2023-04-20T15:44:03.398Z,8.80
2023-04-20T15:46:32.089Z,8.80
2023-04-20T15:49:00.902Z,8.80
2023-04-20T15:51:29.686Z,8.80
2023-04-20T15:53:58.835Z,8.80
2023-04-20T15:56:25.707Z,8.90
2023-04-20T15:58:52.340Z,9.00
2023-04-20T16:01:20.065Z,9.00
2023-04-20T16:03:50.000Z,9.00
2023-04-20T16:06:19.387Z,9.00
2023-04-20T16:08:48.773Z,9.00
2023-04-20T16:11:16.783Z,8.90
2023-04-20T16:13:46.901Z,8.90
2023-04-20T16:16:13.803Z,8.90
2023-04-20T16:18:40.446Z,8.90
2023-04-20T16:21:07.285Z,8.90
2023-04-20T16:23:36.038Z,8.90
2023-04-20T16:26:03.113Z,8.90
2023-04-20T16:28:32.160Z,8.90
2023-04-20T16:30:59.265Z,8.90
2023-04-20T16:33:26.334Z,8.90
2023-04-20T16:35:53.654Z,8.90
2023-04-20T16:38:21.824Z,8.90
2023-04-20T16:40:50.129Z,8.90
2023-04-20T16:43:20.901Z,9.00
2023-04-20T16:45:48.116Z,9.00
2023-04-20T16:48:14.827Z,9.00
2023-04-20T16:50:43.862Z,9.00
2023-04-20T16:53:10.618Z,9.00
2023-04-20T16:55:39.792Z,9.00
2023-04-20T16:58:09.648Z,8.90
2023-04-20T17:00:42.071Z,8.90
2023-04-20T17:03:12.852Z,8.90
2023-04-20T17:05:42.871Z,8.90
2023-04-20T17:08:09.482Z,8.80
2023-04-20T17:10:37.667Z,8.80
2023-04-20T17:13:07.641Z,8.80
2023-04-20T17:15:34.331Z,8.80
2023-04-20T17:18:01.581Z,8.80
2023-04-20T17:20:29.224Z,8.80
2023-04-20T17:22:55.900Z,8.80
2023-04-20T17:25:26.036Z,8.80
2023-04-20T17:27:52.804Z,8.80
2023-04-20T17:30:23.397Z,8.80
2023-04-20T17:32:52.547Z,8.80
2023-04-20T17:35:19.610Z,8.80
2023-04-20T17:37:46.547Z,8.80
2023-04-20T17:40:13.325Z,8.70
2023-04-20T17:42:43.086Z,8.70
2023-04-20T17:45:12.225Z,8.70
2023-04-20T17:47:39.041Z,8.70
2023-04-20T17:50:10.946Z,8.70
2023-04-20T17:52:37.657Z,8.70
2023-04-20T17:55:06.038Z,8.70
2023-04-20T17:57:37.699Z,8.70
2023-04-20T18:00:36.532Z,8.60
2023-04-20T18:03:23.595Z,8.60
2023-04-20T18:06:00.449Z,8.60
2023-04-20T18:08:27.480Z,8.60
2023-04-20T18:10:55.243Z,8.60
2023-04-20T18:13:25.601Z,8.60
2023-04-20T18:16:01.460Z,8.60
2023-04-20T18:18:30.078Z,8.60
2023-04-20T18:20:56.664Z,8.60
2023-04-20T18:23:23.327Z,8.60
2023-04-20T18:25:52.350Z,8.60
2023-04-20T18:28:22.840Z,8.70
2023-04-20T18:37:09.777Z,8.60
2023-04-20T18:39:39.485Z,8.60
2023-04-20T18:42:07.859Z,8.60
2023-04-20T18:44:35.632Z,8.60
2023-04-20T18:47:02.784Z,8.50
2023-04-20T18:49:30.072Z,8.50
2023-04-20T18:51:56.885Z,8.50
2023-04-20T18:57:10.324Z,8.50
2023-04-20T18:59:37.062Z,8.40
2023-04-20T19:02:09.328Z,8.40
2023-04-20T19:04:39.683Z,8.40
2023-04-20T19:07:10.396Z,8.40
2023-04-20T19:09:38.667Z,8.50
2023-04-20T19:12:10.176Z,8.40
2023-04-20T19:14:36.927Z,8.40
2023-04-20T19:17:07.291Z,8.40
2023-04-20T19:19:36.712Z,8.40
2023-04-20T19:22:04.206Z,8.40
2023-04-20T19:24:32.341Z,8.40
2023-04-20T19:27:09.000Z,8.30
2023-04-20T19:29:38.217Z,8.30
2023-04-20T19:32:05.138Z,8.30
2023-04-20T19:34:33.108Z,8.30
2023-04-20T19:37:00.983Z,8.30
2023-04-20T19:39:28.699Z,8.30
2023-04-20T19:41:56.849Z,8.30
2023-04-20T19:44:23.530Z,8.30
2023-04-20T19:46:50.317Z,8.20
2023-04-20T19:49:19.635Z,8.30
2023-04-20T19:51:46.646Z,8.30
2023-04-20T19:54:19.237Z,8.30
2023-04-20T19:56:45.979Z,8.30
2023-04-20T19:59:13.015Z,8.30
2023-04-20T20:01:41.645Z,8.30
2023-04-20T20:04:10.771Z,8.30
2023-04-20T20:06:43.229Z,8.30
2023-04-20T20:12:11.713Z,8.30
2023-04-20T20:14:38.728Z,8.30
2023-04-20T20:17:07.871Z,8.20
2023-04-20T20:19:36.178Z,8.20
2023-04-20T20:22:04.084Z,8.20
2023-04-20T20:24:30.844Z,8.10
2023-04-20T20:26:59.273Z,8.10
2023-04-20T20:29:28.540Z,8.00
2023-04-20T20:43:57.430Z,7.50
2023-04-20T20:46:24.197Z,7.40
2023-04-20T20:48:52.276Z,7.40
2023-04-20T20:51:18.915Z,7.40
2023-04-20T20:53:48.690Z,7.40
2023-04-20T20:56:15.396Z,7.40
2023-04-20T21:04:23.707Z,7.30
2023-04-20T21:06:50.481Z,7.30
2023-04-20T21:09:24.286Z,7.30
2023-04-20T21:11:53.631Z,7.30
2023-04-20T21:14:21.531Z,7.20
2023-04-20T21:16:48.236Z,7.20
2023-04-20T21:19:18.493Z,7.10
2023-04-20T21:21:45.347Z,7.00
2023-04-20T21:24:12.190Z,6.90
2023-04-20T21:26:41.832Z,6.80
2023-04-20T21:29:08.466Z,6.70
2023-04-20T21:31:42.084Z,6.70
2023-04-20T21:34:13.233Z,6.60
2023-04-20T21:36:40.267Z,6.50
2023-04-20T21:44:55.281Z,6.40
2023-04-20T21:47:22.157Z,6.20
2023-04-20T21:49:49.972Z,6.10
2023-04-20T21:55:17.483Z,5.80
2023-04-20T21:57:44.890Z,5.70
2023-04-20T22:00:18.262Z,5.70
2023-04-20T22:02:49.263Z,5.60
2023-04-20T22:08:30.344Z,5.60
2023-04-20T22:11:03.007Z,5.60
2023-04-20T22:16:36.126Z,5.50
2023-04-20T22:19:35.602Z,5.40
2023-04-20T22:22:04.182Z,5.30
2023-04-20T22:30:22.131Z,5.00
2023-04-20T22:32:51.284Z,4.90
2023-04-20T22:35:18.209Z,4.80
2023-04-20T22:37:46.861Z,4.80
2023-04-20T22:40:13.751Z,4.70
2023-04-20T22:45:36.757Z,4.50
2023-04-20T22:50:47.073Z,4.40
2023-04-20T22:53:13.742Z,4.30
2023-04-20T22:56:14.120Z,4.30
2023-04-20T22:59:08.992Z,4.20
2023-04-20T23:02:01.694Z,4.20
2023-04-20T23:04:31.701Z,4.20
2023-04-20T23:07:01.420Z,4.20
2023-04-20T23:09:29.150Z,4.20
2023-04-20T23:11:58.285Z,4.10
2023-04-20T23:14:41.657Z,4.00
2023-04-20T23:17:09.752Z,4.00
2023-04-20T23:19:37.695Z,4.00
2023-04-20T23:25:02.649Z,3.90
2023-04-20T23:27:31.448Z,3.90
2023-04-20T23:30:29.506Z,3.90
2023-04-20T23:32:56.493Z,3.90
2023-04-20T23:35:23.486Z,3.80
2023-04-20T23:37:50.246Z,3.80
2023-04-20T23:40:16.876Z,3.80
2023-04-20T23:42:46.526Z,3.80
2023-04-20T23:45:15.450Z,3.70
2023-04-20T23:47:42.257Z,3.70
2023-04-20T23:50:09.254Z,3.80
2023-04-20T23:52:44.584Z,3.80
2023-04-20T23:55:12.495Z,3.80
2023-04-20T23:57:39.212Z,3.80
